createdAt,value
2023-05-12T06:15:47.527Z,53.47
2023-05-12T06:16:47.481Z,53.59
2023-05-12T06:17:47.401Z,53.39
2023-05-12T06:18:47.417Z,52.81
2023-05-12T06:19:47.261Z,53.22
2023-05-12T06:20:47.218Z,53.06
2023-05-12T06:21:47.149Z,53.18
2023-05-12T06:22:47.076Z,53.47
2023-05-12T06:23:47.021Z,52.62
2023-05-12T06:24:46.963Z,52.75
2023-05-12T06:25:46.918Z,52.84
2023-05-12T06:26:46.855Z,52.48
2023-05-12T06:27:46.793Z,52.12
2023-05-12T06:28:46.765Z,52.34
2023-05-12T06:29:46.654Z,51.95
2023-05-12T06:30:46.607Z,51.78
2023-05-12T06:31:46.571Z,51.70
2023-05-12T06:32:46.549Z,51.24
2023-05-12T06:33:46.433Z,51.07
2023-05-12T06:34:46.373Z,51.10
2023-05-12T06:35:46.327Z,50.54
2023-05-12T06:36:46.293Z,50.39
2023-05-12T06:37:51.565Z,49.63
2023-05-12T06:38:51.443Z,49.29
2023-05-12T06:39:51.379Z,48.45
2023-05-12T06:40:51.332Z,47.71
2023-05-12T06:41:51.279Z,46.68
2023-05-12T06:42:51.211Z,45.92
2023-05-12T06:43:51.145Z,45.67
2023-05-12T06:44:51.084Z,45.12
2023-05-12T06:45:51.107Z,44.74
2023-05-12T06:46:51.052Z,44.00
2023-05-12T06:47:50.964Z,43.55
2023-05-12T06:48:50.856Z,43.19
2023-05-12T06:49:50.803Z,42.74
2023-05-12T06:50:50.814Z,41.87
2023-05-12T06:51:50.682Z,41.81
2023-05-12T06:52:50.661Z,41.55
2023-05-12T06:53:50.587Z,40.60
2023-05-12T06:54:50.552Z,40.44
2023-05-12T06:55:50.471Z,39.86
2023-05-12T06:56:50.416Z,39.90
2023-05-12T06:57:50.352Z,39.42
2023-05-12T06:58:50.297Z,39.44
2023-05-12T06:59:50.287Z,39.46
2023-05-12T07:00:50.214Z,39.46
2023-05-12T07:01:50.215Z,39.38
2023-05-12T07:02:50.114Z,39.48
2023-05-12T07:03:50.111Z,40.08
2023-05-12T07:04:50.067Z,40.10
2023-05-12T07:05:50.011Z,40.59
2023-05-12T07:06:49.925Z,40.12
2023-05-12T07:07:49.957Z,40.42
2023-05-12T07:08:49.797Z,40.14
2023-05-12T07:09:49.737Z,40.45
2023-05-12T07:10:49.698Z,40.58
2023-05-12T07:11:49.622Z,40.17
2023-05-12T07:12:49.546Z,40.39
2023-05-12T07:13:49.531Z,40.41
2023-05-12T07:14:49.559Z,40.13
2023-05-12T07:15:49.495Z,40.15
2023-05-12T07:16:49.394Z,39.67
2023-05-12T07:17:49.320Z,39.91
2023-05-12T07:18:49.322Z,39.32
2023-05-12T07:19:49.204Z,39.04
2023-05-12T07:20:49.127Z,38.86
2023-05-12T07:21:49.114Z,38.78
2023-05-12T07:22:49.084Z,38.79
2023-05-12T07:23:48.988Z,38.73
2023-05-12T07:24:49.017Z,38.53
2023-05-12T07:25:48.877Z,38.45
2023-05-12T07:26:48.820Z,38.27
2023-05-12T07:27:48.845Z,37.98
2023-05-12T07:28:48.715Z,38.18
2023-05-12T07:29:48.682Z,37.71
2023-05-12T07:30:48.637Z,37.73
2023-05-12T07:31:48.806Z,37.15
2023-05-12T07:32:48.587Z,37.37
2023-05-12T07:33:48.458Z,36.98
2023-05-12T22:25:44.918Z,54.10
2023-05-12T22:28:29.747Z,53.91
2023-05-12T22:32:03.957Z,53.42
2023-05-12T22:33:03.898Z,53.52
2023-05-12T22:34:03.803Z,53.33
2023-05-12T22:35:03.784Z,54.10
2023-05-12T22:36:03.685Z,54.10
2023-05-12T22:37:03.672Z,53.33
2023-05-12T22:38:03.604Z,53.03
2023-05-12T22:39:03.497Z,54.10
2023-05-12T22:40:03.443Z,54.07
2023-05-12T22:41:03.374Z,53.69
2023-05-12T22:42:03.361Z,52.91
2023-05-12T22:43:03.305Z,53.81
2023-05-12T22:44:03.187Z,53.59
2023-05-12T22:45:03.141Z,53.23
2023-05-12T22:46:03.077Z,53.49
2023-05-12T22:47:03.087Z,53.20
2023-05-12T22:48:02.987Z,53.59
2023-05-12T22:49:02.894Z,54.07
2023-05-12T22:50:02.833Z,53.49
2023-05-12T22:51:02.769Z,53.78
2023-05-12T22:52:02.726Z,53.78
2023-05-12T22:53:02.708Z,53.78
2023-05-12T22:54:02.604Z,53.30
2023-05-12T22:55:02.543Z,53.30
2023-05-12T22:56:02.468Z,53.78
2023-05-12T22:57:02.393Z,53.30
2023-05-12T22:58:02.350Z,53.69
2023-05-12T22:59:02.355Z,54.07
2023-05-12T23:00:02.224Z,53.49
2023-05-12T23:01:02.247Z,53.59
2023-05-12T23:02:02.096Z,52.91
2023-05-12T23:03:02.085Z,53.59
2023-05-12T23:04:02.012Z,53.49
2023-05-12T23:05:01.913Z,53.30
2023-05-12T23:06:01.860Z,53.49
2023-05-12T23:07:01.812Z,53.01
2023-05-12T23:08:01.760Z,52.98
2023-05-12T23:09:01.644Z,53.01
2023-05-12T23:10:01.641Z,52.98
2023-05-12T23:11:01.561Z,53.85
2023-05-12T23:12:01.473Z,52.98
2023-05-12T23:13:01.453Z,52.98
2023-05-12T23:14:01.356Z,53.47
2023-05-12T23:15:01.330Z,53.08
2023-05-12T23:16:01.241Z,53.47
2023-05-12T23:17:01.199Z,53.47
2023-05-12T23:18:01.243Z,53.85
2023-05-12T23:19:01.102Z,53.66
2023-05-12T23:20:01.004Z,53.47
2023-05-12T23:21:00.928Z,53.47
2023-05-12T23:22:00.874Z,53.95
2023-05-12T23:23:00.796Z,53.47
2023-05-12T23:24:00.746Z,53.95
2023-05-12T23:25:00.693Z,53.85
2023-05-12T23:26:00.672Z,53.47
2023-05-12T23:27:00.582Z,53.47
2023-05-12T23:28:00.535Z,53.47
2023-05-12T23:29:00.427Z,53.75
2023-05-12T23:30:00.389Z,53.44
2023-05-12T23:31:00.348Z,53.44
2023-05-12T23:32:00.338Z,53.95
2023-05-12T23:33:00.253Z,53.92
2023-05-12T23:34:00.166Z,53.44
2023-05-12T23:35:00.075Z,53.53
2023-05-12T23:36:00.020Z,53.92
2023-05-12T23:36:59.994Z,54.11
2023-05-12T23:37:59.908Z,53.92
2023-05-12T23:38:59.821Z,53.92
2023-05-12T23:39:59.738Z,53.73
2023-05-12T23:40:59.697Z,53.73
2023-05-12T23:41:59.653Z,53.83
2023-05-12T23:42:59.589Z,53.92
2023-05-12T23:43:59.494Z,53.83
2023-05-12T23:44:59.464Z,53.92
2023-05-12T23:45:59.436Z,53.92
2023-05-12T23:46:59.324Z,53.53
2023-05-12T23:47:59.331Z,53.83
2023-05-12T23:48:59.204Z,53.89
